Portada
METAR-TAF:

METAR-TAF

Aeropuertos :

Aeropuerto Internacional de Moscú-Sheremétievo

Moscú-Sheremetyevo, Rusia

latitud: 55-58N, longitud: 037-25E, altitud: 190 m

Observación

El informe se hizo hace 24 minutos, a las 06:30 UTC
Viento 10 kt del suroeste
Temperatura 24°C
Humedad 47%
Presión 1026 hPa
Visibilidad 10 km o más
sin nubes por debajo de 1500 m y sin presencia de cumulonimbus.

METAR: UUEE 190630Z 22005MPS CAVOK 24/12 Q1026 R24C/CLRD62 R24R/CLRD62 NOSIG

Hora: 09:54 (06:54 UTC)

Pronóstico

El informe se hizo hace 2 horas y 4 minutos, a las 04:50 UTC
Pronóstico válido del 19 a las 06 UTC al 20 a las 06 UTC
Viento 6 kt del suroeste con ráfagas de 16 kt
Visibilidad 10 km o más
sin nubes por debajo de 1500 m y sin presencia de cumulonimbus.

TAF: UUEE 190450Z 1906/2006 22003G08MPS CAVOK TX27/1912Z TN15/2001Z

Observaciones y pronósticos meteorológicos de más de 4000 aeropuertos (mensajes METAR y TAF).

Los puntos amarillos y rojos representan las estaciones disponibles.

Ponga el ratón en el punto deseado para ver el nombre de la estación.

Haga clic para ver las observaciones y los pronósticos meteorológicos.

Para cambiar el mapa : haga clic en los botones verdes con una cruz de color negro para hacer un zoom, en el botón verde con un guión para alejar o en las flechas verdes para mapas adyacentes.


METAR-TAF: